Lawrenceburg, Kentucky
Current Conditions -  °F | °C
As of 6:53 PM on Monday 20 Oct 2014 (Local Time) from KFFT Reporting Station
Broken Clouds Broken Clouds  
Wind Chill: 61°   Ceiling: 6500
Heat Index: 61°   Visibility: 10mi
Dew Point: 50°   Wind: 9mph
Humidity: 67%   Direction: 210°SSW
Pressure: 29.9"   Gusts: NA
Location:  38.04°N, 84.89°W
Report Text: KFFT 202253Z AUTO 21008KT 10SM FEW043 BKN065 16/10 A2990 RMK AO2 SLP124 T01610100
Loading
Personal Weather Stations






























Interactive Weather Map
Tropical Storm Tracking
New forecast layout! Learn more

10-Day Weather Forecast

Advertisements
Track Severe Weather on mobile